Historyczne dane pomiarowe

Dodano dane terminowe – wersja testowa.

Dane z okresu 1951-2019

Wersja bazy: 1.34 [2019-03-16, lista zmian], aktualizacja planowana na 2019-04-15

Dane meteo z obszaru Polski uzyskane na podstawie danych udostępnionych przez Instytut Meteorologii i Gospodarki Wodnej – Państwowy Instytut Badawczy.

 

Wybierz Datę:    

       

TemperaturaWilgotnośćWiatrCiśnienieOpadyŚniegCzas trwania zjawisk
 Stacja t tx tn tng RH VA  wxwx mslp ppp RRR   cm mm wxwxwxwxwxwxwx
1999-08-14 15.0 21.1 9.7- 72.5- 2.3 3.7---- 0.0------------
1999-08-13 15.8 21.6 10.0- 75.0- 3.0 2.7---- 0.0------------
1999-08-12 17.0 21.1 14.5- 80.8- 5.7 3.3---- 0.0------------
1999-08-11 19.9 24.8 15.1- 79.3- 5.3 3.3---- 19.0------------
1999-08-10 21.4 29.8 15.1- 82.5- 5.7 2.3---- 2.8------------
1999-08-09 24.0 31.9 16.4- 69.0- 2.7 2.7---- 3.7------------
1999-08-08 23.4 28.8 18.3- 77.0- 6.0 2.7---- 0.0------------
1999-08-07 21.4 29.3 12.9- 71.5- 2.0 1.7---- 0.0------------
1999-08-06 19.0 26.9 12.0- 81.5- 5.7 2.3---- 2.8------------
1999-08-05 18.4 26.6 10.2- 74.3- 2.7 1.7---- 0.0------------
1999-08-04 17.9 24.3 11.0- 77.5- 3.3 2.0---- 0.0------------
1999-08-03 16.4 22.0 11.1- 85.0- 6.0 1.7---- 3.8------------
1999-08-02 17.0 21.0 14.2- 88.3- 7.0 1.3---- 3.9------------
1999-08-01 18.9 25.2 13.6- 67.0- 5.7 2.7---- 0.0------------
1999-07-31 18.5 25.5 9.9- 54.3- 3.3 4.0---- 0.0------------
1999-07-30 18.1 25.1 10.1- 62.8- 1.0 4.7---- 0.0------------
1999-07-29 17.4 24.5 10.2- 66.5- 1.0 5.3---- 0.0------------
1999-07-28 17.3 20.7 14.5- 91.5- 5.0 4.3---- 25.7------------
1999-07-27 20.6 25.3 17.3- 84.3- 6.3 5.3---- 5.6------------
1999-07-26 21.7 29.2 14.0- 74.3- 6.0 3.7---- 0.0------------
1999-07-25 18.9 25.5 11.6- 78.8- 3.3 1.0---- 0.0------------
1999-07-24 17.4 22.0 13.1- 85.0- 5.3 1.7---- 0.0------------
1999-07-23 16.6 21.5 14.3- 93.5- 7.0 3.3---- 7.2------------
1999-07-22 21.8 26.0 18.5- 68.8- 6.0 3.3---- 0.8------------
1999-07-21 23.4 30.2 16.0- 60.3- 3.3 4.7---- 0.0------------
1999-07-20 22.8 30.7 14.6- 59.0- 1.0 2.0---- 0.0------------
1999-07-19 20.7 28.8 11.2- 62.3- 4.7 2.0---- 0.0------------
1999-07-18 18.4 25.9 9.8- 68.3- 2.0 1.7---- 0.0------------
1999-07-17 16.7 23.5 10.0- 71.3- 3.0 2.0---- 0.0------------
1999-07-16 17.1 22.6 11.1- 70.0- 2.0 3.3---- 1.6------------
1999-07-15 18.6 22.7 15.6- 78.0- 4.7 5.3---- 1.9------------
1999-07-14 22.1 26.9 18.7- 79.5- 4.3 3.3---- 3.9------------
1999-07-13 20.7 25.6 15.9- 86.5- 4.3 3.0---- 0.8------------
1999-07-12 21.6 28.8 16.6- 71.8- 4.7 3.3---- 12.1------------
1999-07-11 21.8 26.8 17.4- 56.3- 3.3 6.0---- 0.0------------
1999-07-10 21.2 25.7 17.2- 69.3- 3.0 5.3---- 0.0------------
1999-07-09 21.8 25.4 18.9- 85.5- 6.3 5.7---- 0.0------------
1999-07-08 21.8 26.8 18.4- 86.3- 7.0 3.7---- 4.3------------
1999-07-07 23.8 28.3 20.9- 78.0- 5.3 4.0---- 16.2------------
1999-07-06 25.6 32.3 16.9- 61.5- 1.0 4.3---- 0.0------------
1999-07-05 24.1 32.4 13.9- 68.3- 0.0 3.7---- 0.0------------
1999-07-04 23.1 30.7 13.1- 75.8- 0.3 2.0---- 0.0------------
1999-07-03 21.3 27.0 14.6- 78.3- 3.0 1.7---- 0.0------------
1999-07-02 20.7 26.2 14.3- 75.3- 4.0 2.7---- 0.0------------
1999-07-01 20.1 26.0 11.5- 65.0- 2.0 2.7---- 0.0------------
1999-06-30 20.1 26.3 12.2- 73.5- 3.0 2.0---- 0.0------------
1999-06-29 20.4 25.3 15.0- 74.8- 5.7 2.3---- 0.0------------
1999-06-28 21.2 28.7 11.1- 64.3- 1.0 1.3---- 0.0------------
1999-06-27 20.1 26.6 10.3- 55.5- 0.0 5.0---- 0.0------------
1999-06-26 16.6 24.0 6.7- 66.3- 0.7 2.3---- 0.0------------
1999-06-25 14.1 19.5 9.5- 80.5- 4.0 2.0---- 0.0------------
1999-06-24 11.2 12.3 9.2- 92.3- 8.0 5.0---- 7.9------------
1999-06-23 10.4 11.7 8.8- 99.0- 8.0 6.3---- 3.1------------
1999-06-22 14.0 17.3 11.1- 99.8- 8.0 4.7---- 23.1------------
1999-06-21 18.2 23.8 15.6- 94.5- 6.3 2.3---- 19.4------------
1999-06-20 18.8 23.3 15.4- 87.8- 5.3 1.3---- 0.2------------
1999-06-19 18.8 23.8 15.3- 84.8- 4.7 3.7---- 0.0------------
1999-06-18 20.1 25.4 16.9- 86.8- 6.7 1.3---- 0.8------------
1999-06-17 21.0 25.4 16.7- 85.5- 7.0 1.3---- 1.9------------
1999-06-16 19.0 23.4 15.9- 88.5- 8.0 2.3---- 0.4------------
312.3 ms

 

Źródłem pochodzenia danych jest Instytut Meteorologii i Gospodarki Wodnej – Państwowy Instytut Badawczy. Dane Instytutu Meteorologii i Gospodarki Wodnej – Państwowego Instytutu Badawczego zostały przetworzone.

Dane źródłowe można odnaleźć na stronie https://dane.imgw.pl